createdAt,value
2017-09-29T00:00:41.914Z,0
2017-09-29T00:01:42.664Z,0
2017-09-29T00:02:43.443Z,0
2017-09-29T00:03:44.183Z,0
2017-09-29T00:05:47.289Z,0
2017-09-29T00:06:48.069Z,0
2017-09-29T00:07:48.884Z,0
2017-09-29T00:08:49.614Z,0
2017-09-29T00:09:50.756Z,0
2017-09-29T00:10:51.563Z,0
2017-09-29T00:11:52.304Z,0
2017-09-29T00:12:53.044Z,0
2017-09-29T00:13:53.815Z,0
2017-09-29T00:14:54.847Z,0
2017-09-29T00:15:55.664Z,0
2017-09-29T00:16:56.402Z,0
2017-09-29T00:17:57.143Z,0
2017-09-29T00:18:57.880Z,0
2017-09-29T00:19:59.015Z,0
2017-09-29T00:20:59.755Z,0
2017-09-29T00:22:00.555Z,0
2017-09-29T00:23:01.288Z,0
2017-09-29T00:24:02.037Z,0
2017-09-29T00:25:02.819Z,0
2017-09-29T00:26:03.605Z,0
2017-09-29T00:27:04.823Z,0
2017-09-29T00:28:05.586Z,0
2017-09-29T00:29:06.391Z,0
2017-09-29T00:30:07.117Z,0
2017-09-29T00:31:07.844Z,0
2017-09-29T00:32:08.984Z,0
2017-09-29T00:33:09.733Z,0
2017-09-29T00:34:10.465Z,0
2017-09-29T00:35:11.214Z,0
2017-09-29T00:36:11.964Z,0
2017-09-29T00:37:12.997Z,0
2017-09-29T00:38:13.788Z,0
2017-09-29T00:39:14.590Z,0
2017-09-29T00:40:15.319Z,0
2017-09-29T00:41:16.055Z,0
2017-09-29T00:42:16.864Z,0
2017-09-29T00:43:17.604Z,0
2017-09-29T00:44:18.355Z,0
2017-09-29T00:45:19.084Z,0
2017-09-29T00:46:19.822Z,0
2017-09-29T00:47:20.803Z,0
2017-09-29T00:48:21.537Z,0
2017-09-29T00:49:22.346Z,0
2017-09-29T00:50:23.144Z,0
2017-09-29T00:51:23.917Z,0
2017-09-29T00:52:24.947Z,0
2017-09-29T00:53:25.678Z,0
2017-09-29T00:54:26.468Z,0
2017-09-29T00:55:27.298Z,0
2017-09-29T00:56:28.085Z,0
2017-09-29T00:57:29.068Z,0
2017-09-29T00:58:29.888Z,0
2017-09-29T00:59:30.622Z,0
2017-09-29T01:00:31.361Z,0
2017-09-29T01:01:32.093Z,0
2017-09-29T01:02:33.215Z,0
2017-09-29T01:03:33.953Z,0
2017-09-29T01:04:34.763Z,0
2017-09-29T01:05:35.514Z,0
2017-09-29T01:06:36.861Z,0
2017-09-29T01:07:38.320Z,0
2017-09-29T01:08:39.111Z,0
2017-09-29T01:09:40.083Z,0
2017-09-29T01:10:40.918Z,0
2017-09-29T01:11:41.670Z,0
2017-09-29T01:12:42.742Z,0
2017-09-29T01:13:43.472Z,0
2017-09-29T01:14:44.223Z,0
2017-09-29T01:15:45.032Z,0
2017-09-29T01:16:45.760Z,0
2017-09-29T01:17:46.501Z,0
2017-09-29T01:18:47.252Z,0
2017-09-29T01:19:47.987Z,0
2017-09-29T01:20:48.718Z,0
2017-09-29T01:21:49.679Z,0
2017-09-29T01:22:50.471Z,0
2017-09-29T01:23:51.205Z,0
2017-09-29T01:24:51.930Z,0
2017-09-29T01:25:52.672Z,0
2017-09-29T01:26:53.406Z,0
2017-09-29T01:27:54.551Z,0
2017-09-29T01:28:55.290Z,0
2017-09-29T01:29:56.034Z,0
2017-09-29T01:30:56.771Z,0
2017-09-29T01:31:57.525Z,0
2017-09-29T01:32:58.247Z,0
2017-09-29T01:33:59.375Z,0
2017-09-29T01:35:00.151Z,0
2017-09-29T01:36:00.981Z,0
2017-09-29T01:37:01.760Z,0
2017-09-29T01:38:02.600Z,0
2017-09-29T01:39:03.732Z,0
2017-09-29T01:40:04.473Z,0
2017-09-29T01:41:05.263Z,0
2017-09-29T01:42:06.085Z,0
2017-09-29T01:43:06.849Z,0
2017-09-29T01:44:07.946Z,0
2017-09-29T01:45:08.680Z,0
2017-09-29T01:46:09.487Z,0
2017-09-29T01:47:10.232Z,0
2017-09-29T01:48:11.040Z,0
2017-09-29T01:49:12.169Z,0
2017-09-29T01:50:12.900Z,0
2017-09-29T01:51:13.721Z,0
2017-09-29T01:52:14.453Z,0
2017-09-29T01:53:15.187Z,0
2017-09-29T01:54:16.187Z,0
2017-09-29T01:55:16.919Z,0
2017-09-29T01:56:17.717Z,0
2017-09-29T01:57:18.450Z,0
2017-09-29T01:58:19.268Z,0
2017-09-29T01:59:20.199Z,0
2017-09-29T02:00:20.938Z,0
2017-09-29T02:01:21.678Z,0
2017-09-29T02:02:22.438Z,0
2017-09-29T02:03:23.218Z,0
2017-09-29T02:04:24.247Z,0
2017-09-29T02:05:24.998Z,0
2017-09-29T02:06:25.736Z,0
2017-09-29T02:07:26.468Z,0
2017-09-29T02:08:27.206Z,0
2017-09-29T02:09:28.299Z,0
2017-09-29T02:10:29.110Z,0
2017-09-29T02:11:29.897Z,0
2017-09-29T02:12:30.642Z,0
2017-09-29T02:13:31.458Z,0
2017-09-29T02:14:32.588Z,0
2017-09-29T02:15:33.333Z,0
2017-09-29T02:16:34.128Z,0
2017-09-29T02:17:34.860Z,0
2017-09-29T02:18:35.679Z,0
2017-09-29T02:19:36.820Z,0
2017-09-29T02:20:37.627Z,0
2017-09-29T02:21:38.362Z,0
2017-09-29T02:22:39.169Z,0
2017-09-29T02:23:39.978Z,0
2017-09-29T02:24:41.083Z,0
2017-09-29T02:25:41.819Z,0
2017-09-29T02:26:42.564Z,0
2017-09-29T02:27:43.373Z,0
2017-09-29T02:28:44.182Z,0
2017-09-29T02:29:45.288Z,0
2017-09-29T02:30:46.028Z,0
2017-09-29T02:31:46.778Z,0
2017-09-29T02:32:47.518Z,0
2017-09-29T02:33:48.291Z,0
2017-09-29T02:34:49.418Z,0
2017-09-29T02:35:50.159Z,0
2017-09-29T02:36:50.935Z,0
2017-09-29T02:37:51.668Z,0
2017-09-29T02:38:52.411Z,0
2017-09-29T02:39:53.419Z,0
2017-09-29T02:40:54.159Z,0
2017-09-29T02:41:54.901Z,0
2017-09-29T02:42:55.629Z,0
2017-09-29T02:43:56.386Z,0
2017-09-29T02:44:57.420Z,0
2017-09-29T02:45:58.150Z,0
2017-09-29T02:46:58.903Z,0
2017-09-29T02:47:59.633Z,0
2017-09-29T02:49:00.414Z,0
2017-09-29T02:50:01.218Z,0
2017-09-29T02:51:02.331Z,0
2017-09-29T02:52:03.070Z,0
2017-09-29T02:53:03.864Z,0
2017-09-29T02:54:04.613Z,0
2017-09-29T02:55:05.398Z,0
2017-09-29T02:56:06.529Z,0
2017-09-29T02:57:07.270Z,0
2017-09-29T02:58:08.037Z,0
2017-09-29T02:59:08.823Z,0
2017-09-29T03:00:09.613Z,0
2017-09-29T03:01:10.789Z,0
2017-09-29T03:02:11.533Z,0
2017-09-29T03:03:12.270Z,0
2017-09-29T03:04:13.001Z,0
2017-09-29T03:05:13.836Z,0
2017-09-29T03:06:14.878Z,0
2017-09-29T03:07:15.661Z,0
2017-09-29T03:08:16.482Z,0
2017-09-29T03:09:17.279Z,0
2017-09-29T03:10:18.020Z,0
2017-09-29T03:11:19.049Z,0
2017-09-29T03:12:19.790Z,0
2017-09-29T03:13:20.521Z,0
2017-09-29T03:14:21.330Z,0
2017-09-29T03:15:22.069Z,0
2017-09-29T03:16:23.259Z,0
2017-09-29T03:17:24.026Z,0
2017-09-29T03:18:24.831Z,0
2017-09-29T03:19:25.581Z,0
2017-09-29T03:20:26.351Z,0
2017-09-29T03:21:27.398Z,0
2017-09-29T03:22:28.164Z,0
2017-09-29T03:23:28.967Z,0
2017-09-29T03:24:29.729Z,0
2017-09-29T03:25:30.479Z,0
2017-09-29T03:26:31.541Z,0
2017-09-29T03:27:32.301Z,0
2017-09-29T03:28:33.020Z,0
2017-09-29T03:29:33.766Z,0
2017-09-29T03:30:34.576Z,0
2017-09-29T03:31:35.382Z,0
2017-09-29T03:32:36.111Z,0
2017-09-29T03:33:37.212Z,0
2017-09-29T03:34:37.960Z,0
2017-09-29T03:35:38.750Z,0
2017-09-29T03:36:39.480Z,0
2017-09-29T03:37:40.213Z,0
2017-09-29T03:38:41.029Z,0
2017-09-29T03:39:42.068Z,0
2017-09-29T03:40:42.870Z,0
2017-09-29T03:41:43.608Z,0
2017-09-29T03:42:44.321Z,0
2017-09-29T03:43:45.051Z,0
2017-09-29T03:44:45.779Z,0
2017-09-29T03:45:46.921Z,0
2017-09-29T03:46:47.661Z,0
2017-09-29T03:47:48.391Z,0
2017-09-29T03:48:49.193Z,0
2017-09-29T03:49:49.938Z,0
2017-09-29T03:50:51.074Z,0
2017-09-29T03:51:51.861Z,0
2017-09-29T03:52:52.614Z,0
2017-09-29T03:53:53.360Z,0
2017-09-29T03:54:54.143Z,0
2017-09-29T03:55:55.127Z,0
2017-09-29T03:56:55.871Z,0
2017-09-29T03:57:56.630Z,0
2017-09-29T03:58:57.371Z,0
2017-09-29T03:59:58.110Z,0
2017-09-29T04:00:58.847Z,0
2017-09-29T04:01:59.582Z,0
2017-09-29T04:03:00.681Z,0
2017-09-29T04:04:01.430Z,0
2017-09-29T04:05:02.172Z,0
2017-09-29T04:06:02.979Z,0
2017-09-29T04:07:03.726Z,0
2017-09-29T04:08:04.519Z,0
2017-09-29T04:09:05.655Z,0
2017-09-29T04:10:06.392Z,0
2017-09-29T04:11:07.146Z,0
2017-09-29T04:12:07.951Z,0
2017-09-29T04:13:08.793Z,0
2017-09-29T04:14:09.800Z,0
2017-09-29T04:15:10.592Z,0
2017-09-29T04:16:11.399Z,0
2017-09-29T04:17:12.137Z,0
2017-09-29T04:18:12.862Z,0
2017-09-29T04:19:14.000Z,0
2017-09-29T04:20:14.738Z,0
2017-09-29T04:21:15.489Z,0
2017-09-29T04:22:16.228Z,0
2017-09-29T04:23:16.974Z,0
2017-09-29T04:24:18.168Z,0
2017-09-29T04:25:18.900Z,0
2017-09-29T04:26:19.642Z,0
2017-09-29T04:27:20.426Z,0
2017-09-29T04:28:21.173Z,0
2017-09-29T04:29:22.198Z,0
2017-09-29T04:30:22.928Z,0
2017-09-29T04:31:23.667Z,0
2017-09-29T04:32:24.407Z,0
2017-09-29T04:33:25.209Z,0
2017-09-29T04:34:26.148Z,0
2017-09-29T04:35:26.948Z,0
2017-09-29T04:36:27.690Z,0
2017-09-29T04:37:28.469Z,0
2017-09-29T04:38:30.046Z,0
2017-09-29T04:39:31.126Z,0
2017-09-29T04:41:34.438Z,0
2017-09-29T04:42:35.106Z,0
2017-09-29T04:43:35.928Z,0
2017-09-29T04:44:37.010Z,0
2017-09-29T04:45:37.808Z,0
2017-09-29T04:46:38.618Z,0
2017-09-29T04:47:39.400Z,0
2017-09-29T04:48:40.161Z,0
2017-09-29T04:49:41.140Z,0
2017-09-29T04:50:41.880Z,0
2017-09-29T04:51:42.617Z,0
2017-09-29T04:52:43.349Z,0
2017-09-29T04:53:44.081Z,0
2017-09-29T04:54:45.199Z,0
2017-09-29T04:55:45.949Z,0
2017-09-29T04:56:46.772Z,0
2017-09-29T04:57:47.570Z,0
2017-09-29T04:58:48.319Z,0
2017-09-29T04:59:49.522Z,0
2017-09-29T05:00:50.327Z,0
2017-09-29T05:01:51.060Z,0
2017-09-29T05:02:51.858Z,0
2017-09-29T05:03:52.587Z,0
2017-09-29T05:04:53.628Z,0
2017-09-29T05:05:54.426Z,0
2017-09-29T05:06:55.158Z,0
2017-09-29T05:07:55.909Z,0
2017-09-29T05:08:56.667Z,0
2017-09-29T05:09:57.657Z,0
2017-09-29T05:10:58.387Z,0
2017-09-29T05:11:59.120Z,5
2017-09-29T05:12:59.908Z,5
2017-09-29T05:14:00.707Z,5
2017-09-29T05:15:01.756Z,5
2017-09-29T05:16:02.538Z,5
2017-09-29T05:17:03.307Z,5
2017-09-29T05:18:04.049Z,11
2017-09-29T05:19:04.860Z,11
2017-09-29T05:20:06.003Z,11
2017-09-29T05:21:06.798Z,11
2017-09-29T05:22:07.537Z,11
2017-09-29T05:23:08.276Z,16
2017-09-29T05:24:09.015Z,16
2017-09-29T05:25:09.764Z,16
2017-09-29T05:26:10.502Z,22
2017-09-29T05:27:11.258Z,22
2017-09-29T05:28:12.051Z,22
2017-09-29T05:29:13.149Z,28
2017-09-29T05:30:13.895Z,28
2017-09-29T05:31:14.657Z,28
2017-09-29T05:32:15.398Z,33
2017-09-29T05:33:16.138Z,33
2017-09-29T05:34:17.188Z,33
2017-09-29T05:35:17.998Z,39
2017-09-29T05:36:18.742Z,45
2017-09-29T05:37:19.478Z,45
2017-09-29T05:38:20.218Z,50
2017-09-29T05:39:21.248Z,50
2017-09-29T05:40:22.058Z,56
2017-09-29T05:41:22.877Z,56
2017-09-29T05:42:23.640Z,61
2017-09-29T05:43:24.448Z,61
2017-09-29T05:44:25.488Z,67
2017-09-29T05:45:26.307Z,67
2017-09-29T05:46:27.052Z,67
2017-09-29T05:47:27.848Z,73
2017-09-29T05:48:28.595Z,73
2017-09-29T05:49:29.648Z,78
2017-09-29T05:50:30.380Z,78
2017-09-29T05:51:31.199Z,84
2017-09-29T05:52:31.929Z,90
2017-09-29T05:53:32.682Z,95
2017-09-29T05:54:33.869Z,101
2017-09-29T05:55:34.610Z,106
2017-09-29T05:56:35.349Z,118
2017-09-29T05:57:36.081Z,123
2017-09-29T05:58:36.819Z,140
2017-09-29T05:59:37.571Z,146
2017-09-29T06:00:38.766Z,151
2017-09-29T06:01:39.509Z,157
2017-09-29T06:02:40.247Z,168
2017-09-29T06:03:41.029Z,174
2017-09-29T06:04:41.776Z,191
2017-09-29T06:05:42.959Z,191
2017-09-29T06:06:43.722Z,202
2017-09-29T06:07:44.509Z,208
2017-09-29T06:08:45.242Z,213
2017-09-29T06:09:45.984Z,213
2017-09-29T06:10:47.092Z,219
2017-09-29T06:11:47.869Z,219
2017-09-29T06:12:48.616Z,219
2017-09-29T06:13:49.296Z,225
2017-09-29T06:14:50.029Z,225
2017-09-29T06:15:51.070Z,230
2017-09-29T06:16:51.890Z,230
2017-09-29T06:17:52.633Z,236
2017-09-29T06:18:53.378Z,241
2017-09-29T06:19:54.126Z,241
2017-09-29T06:20:54.870Z,247
2017-09-29T06:21:55.620Z,253
2017-09-29T06:22:56.560Z,258
2017-09-29T06:23:57.312Z,258
2017-09-29T06:24:58.093Z,270
2017-09-29T06:25:58.834Z,264
2017-09-29T06:26:59.651Z,270
2017-09-29T06:28:00.642Z,275
2017-09-29T06:29:01.399Z,275
2017-09-29T06:30:02.129Z,281
2017-09-29T06:31:02.922Z,286
2017-09-29T06:32:03.666Z,298
2017-09-29T06:33:04.880Z,303
2017-09-29T06:34:05.641Z,309
2017-09-29T06:35:06.542Z,315
2017-09-29T06:36:07.433Z,315
2017-09-29T06:37:08.178Z,320
2017-09-29T06:38:09.405Z,326
2017-09-29T06:39:10.802Z,331
2017-09-29T06:40:11.499Z,343
2017-09-29T06:41:12.301Z,348
2017-09-29T06:42:13.040Z,360
2017-09-29T06:43:13.786Z,365
2017-09-29T06:44:14.581Z,376
2017-09-29T06:45:15.691Z,382
2017-09-29T06:46:16.433Z,388
2017-09-29T06:47:17.262Z,388
2017-09-29T06:48:18.084Z,393
2017-09-29T06:49:18.827Z,393
2017-09-29T06:50:20.011Z,388
2017-09-29T06:51:20.778Z,382
2017-09-29T06:52:21.544Z,376
2017-09-29T06:53:22.377Z,371
2017-09-29T06:54:23.193Z,365
2017-09-29T06:55:24.334Z,360
2017-09-29T06:56:25.074Z,376
2017-09-29T06:57:25.916Z,393
2017-09-29T06:58:26.723Z,410
2017-09-29T06:59:27.448Z,410
2017-09-29T07:00:28.443Z,410
2017-09-29T07:01:29.187Z,416
2017-09-29T07:02:29.922Z,416
2017-09-29T07:03:30.712Z,416
2017-09-29T07:04:31.452Z,421
2017-09-29T07:05:32.450Z,410
2017-09-29T07:06:33.222Z,421
2017-09-29T07:07:33.971Z,444
2017-09-29T07:08:34.781Z,483
2017-09-29T07:09:35.518Z,517
2017-09-29T07:10:36.461Z,551
2017-09-29T07:11:37.193Z,568
2017-09-29T07:12:37.923Z,568
2017-09-29T07:13:38.740Z,590
2017-09-29T07:14:39.482Z,601
2017-09-29T07:15:40.530Z,601
2017-09-29T07:16:41.281Z,590
2017-09-29T07:17:42.062Z,573
2017-09-29T07:18:42.889Z,551
2017-09-29T07:19:43.630Z,534
2017-09-29T07:20:44.808Z,528
2017-09-29T07:21:45.513Z,528
2017-09-29T07:22:46.349Z,540
2017-09-29T07:23:47.087Z,556
2017-09-29T07:24:47.830Z,562
2017-09-29T07:25:48.575Z,528
2017-09-29T07:26:49.390Z,523
2017-09-29T07:27:50.533Z,551
2017-09-29T07:28:51.351Z,596
2017-09-29T07:29:52.091Z,613
2017-09-29T07:30:52.829Z,573
2017-09-29T07:31:53.570Z,568
2017-09-29T07:32:54.715Z,590
2017-09-29T07:33:55.457Z,613
2017-09-29T07:34:56.213Z,613
2017-09-29T07:35:57.023Z,618
2017-09-29T07:36:57.820Z,607
2017-09-29T07:37:58.966Z,596
2017-09-29T07:38:59.743Z,573
2017-09-29T07:40:01.139Z,590
2017-09-29T07:41:03.099Z,607
2017-09-29T07:42:04.112Z,613
2017-09-29T07:43:05.263Z,641
2017-09-29T07:44:06.090Z,675
2017-09-29T07:45:06.849Z,708
2017-09-29T07:46:07.605Z,742
2017-09-29T07:47:09.445Z,765
2017-09-29T07:48:10.467Z,793
2017-09-29T07:49:11.628Z,821
2017-09-29T07:50:12.364Z,826
2017-09-29T07:51:13.209Z,843
2017-09-29T07:52:13.948Z,838
2017-09-29T07:53:14.698Z,832
2017-09-29T07:54:15.676Z,826
2017-09-29T07:55:16.487Z,849
2017-09-29T07:56:17.228Z,871
2017-09-29T07:57:18.003Z,894
2017-09-29T07:58:18.929Z,928
2017-09-29T07:59:20.118Z,928
2017-09-29T08:00:20.863Z,922
2017-09-29T08:01:21.678Z,916
2017-09-29T08:02:22.421Z,916
2017-09-29T08:03:23.243Z,922
2017-09-29T08:04:24.038Z,939
2017-09-29T08:05:24.790Z,967
2017-09-29T08:06:25.546Z,1001
2017-09-29T08:07:26.710Z,1006
2017-09-29T08:08:27.460Z,1040
2017-09-29T08:09:28.238Z,1035
2017-09-29T08:10:29.559Z,1063
2017-09-29T08:11:30.636Z,1080
2017-09-29T08:12:32.013Z,1040
2017-09-29T08:13:32.774Z,1147
2017-09-29T08:14:33.513Z,1102
2017-09-29T08:15:34.336Z,1220
2017-09-29T08:16:35.137Z,1226
2017-09-29T08:17:36.110Z,1243
2017-09-29T08:18:36.937Z,1181
2017-09-29T08:19:37.688Z,1096
2017-09-29T08:20:38.508Z,1265
2017-09-29T08:21:39.248Z,1215
2017-09-29T08:22:39.989Z,1254
2017-09-29T08:23:40.809Z,1220
2017-09-29T08:24:41.830Z,1175
2017-09-29T08:25:42.580Z,1203
2017-09-29T08:26:43.328Z,1299
2017-09-29T08:27:44.138Z,1237
2017-09-29T08:28:44.882Z,1366
2017-09-29T08:29:45.837Z,1344
2017-09-29T08:30:46.643Z,1305
2017-09-29T08:31:47.395Z,1389
2017-09-29T08:32:48.131Z,1361
2017-09-29T08:33:48.936Z,1423
2017-09-29T08:34:50.080Z,1406
2017-09-29T08:35:50.896Z,1293
2017-09-29T08:36:51.641Z,1271
2017-09-29T08:37:52.478Z,1215
2017-09-29T08:38:53.231Z,1125
2017-09-29T08:39:54.284Z,1108
2017-09-29T08:40:55.030Z,1108
2017-09-29T08:41:55.847Z,1119
2017-09-29T08:42:56.595Z,1119
2017-09-29T08:43:57.344Z,1237
2017-09-29T08:44:58.415Z,1186
2017-09-29T08:46:00.337Z,1186
2017-09-29T08:47:01.321Z,1181
2017-09-29T08:48:02.090Z,1170
2017-09-29T08:49:02.827Z,1147
2017-09-29T08:50:03.876Z,1063
2017-09-29T08:51:04.707Z,995
2017-09-29T08:52:05.457Z,945
2017-09-29T08:53:06.214Z,866
2017-09-29T08:54:06.997Z,815
2017-09-29T08:55:08.089Z,821
2017-09-29T08:56:09.079Z,866
2017-09-29T08:57:09.779Z,866
2017-09-29T08:58:10.503Z,843
2017-09-29T08:59:12.325Z,849
2017-09-29T09:00:14.100Z,843
2017-09-29T09:01:14.851Z,843
2017-09-29T09:02:15.723Z,821
2017-09-29T09:03:16.522Z,793
2017-09-29T09:04:17.344Z,826
2017-09-29T09:05:18.385Z,843
2017-09-29T09:06:20.107Z,922
2017-09-29T09:07:21.167Z,1029
2017-09-29T09:08:21.946Z,1108
2017-09-29T09:09:22.653Z,1175
2017-09-29T09:10:23.401Z,1237
2017-09-29T09:11:24.509Z,1305
2017-09-29T09:12:25.299Z,1350
2017-09-29T09:13:26.051Z,1423
2017-09-29T09:14:26.874Z,1215
2017-09-29T09:15:27.619Z,1091
2017-09-29T09:16:28.569Z,1023
2017-09-29T09:17:29.365Z,967
2017-09-29T09:18:30.173Z,916
2017-09-29T09:19:30.970Z,877
2017-09-29T09:20:31.780Z,843
2017-09-29T09:21:32.865Z,793
2017-09-29T09:22:33.623Z,725
2017-09-29T09:23:34.414Z,714
2017-09-29T09:24:35.160Z,725
2017-09-29T09:25:35.935Z,714
2017-09-29T09:26:37.120Z,686
2017-09-29T09:27:37.908Z,652
2017-09-29T09:28:38.742Z,624
2017-09-29T09:29:39.599Z,618
2017-09-29T09:30:40.308Z,624
2017-09-29T09:31:41.154Z,646
2017-09-29T09:32:41.973Z,675
2017-09-29T09:33:42.796Z,714
2017-09-29T09:34:43.834Z,748
2017-09-29T09:35:44.574Z,759
2017-09-29T09:36:45.334Z,759
2017-09-29T09:37:46.140Z,742
2017-09-29T09:38:46.893Z,714
2017-09-29T09:39:48.058Z,691
2017-09-29T09:40:48.810Z,680
2017-09-29T09:41:49.602Z,686
2017-09-29T09:42:50.342Z,708
2017-09-29T09:43:51.087Z,736
2017-09-29T09:44:51.874Z,787
2017-09-29T09:45:53.041Z,832
2017-09-29T09:46:53.842Z,866
2017-09-29T09:47:54.573Z,900
2017-09-29T09:48:55.401Z,956
2017-09-29T09:49:56.142Z,1012
2017-09-29T09:50:57.192Z,1063
2017-09-29T09:51:57.943Z,1102
2017-09-29T09:52:58.687Z,1125
2017-09-29T09:53:59.434Z,1125
2017-09-29T09:55:00.237Z,1130
2017-09-29T09:56:01.376Z,1102
2017-09-29T09:57:02.128Z,1091
2017-09-29T09:58:02.871Z,1091
2017-09-29T09:59:03.673Z,1085
2017-09-29T10:00:04.408Z,1085
2017-09-29T10:01:05.639Z,1091
2017-09-29T10:02:06.372Z,1085
2017-09-29T10:03:07.124Z,1068
2017-09-29T10:04:07.938Z,1046
2017-09-29T10:05:08.754Z,1029
2017-09-29T10:06:09.811Z,1029
2017-09-29T10:07:10.620Z,1029
2017-09-29T10:08:11.432Z,1040
2017-09-29T10:09:12.165Z,1046
2017-09-29T10:10:12.909Z,1057
2017-09-29T10:11:13.908Z,1051
2017-09-29T10:12:14.651Z,1040
2017-09-29T10:13:15.410Z,1018
2017-09-29T10:14:16.218Z,973
2017-09-29T10:15:17.038Z,933
2017-09-29T10:16:17.779Z,900
2017-09-29T10:17:18.618Z,883
2017-09-29T10:18:19.415Z,877
2017-09-29T10:19:20.157Z,866
2017-09-29T10:20:20.891Z,849
2017-09-29T10:21:21.885Z,821
2017-09-29T10:22:22.672Z,787
2017-09-29T10:23:23.422Z,759
2017-09-29T10:24:24.160Z,731
2017-09-29T10:25:24.900Z,725
2017-09-29T10:26:26.005Z,742
2017-09-29T10:27:26.809Z,776
2017-09-29T10:28:27.560Z,810
2017-09-29T10:29:28.374Z,821
2017-09-29T10:30:29.111Z,821
2017-09-29T10:31:30.202Z,826
2017-09-29T10:32:30.951Z,826
2017-09-29T10:33:31.786Z,855
2017-09-29T10:34:32.591Z,883
2017-09-29T10:35:33.412Z,928
2017-09-29T10:36:34.550Z,933
2017-09-29T10:37:35.515Z,905
2017-09-29T10:38:36.219Z,916
2017-09-29T10:39:36.963Z,1063
2017-09-29T10:40:37.776Z,1316
2017-09-29T10:41:38.820Z,1271
2017-09-29T10:42:39.638Z,1327
2017-09-29T10:43:40.367Z,1344
2017-09-29T10:44:41.115Z,1310
2017-09-29T10:45:41.923Z,1209
2017-09-29T10:46:43.000Z,1096
2017-09-29T10:47:43.748Z,1068
2017-09-29T10:48:44.501Z,1018
2017-09-29T10:49:45.277Z,995
2017-09-29T10:50:46.017Z,939
2017-09-29T10:51:46.763Z,939
2017-09-29T10:52:47.591Z,1023
2017-09-29T10:53:48.406Z,1119
2017-09-29T10:54:49.193Z,1243
2017-09-29T10:55:50.293Z,1226
2017-09-29T10:56:51.043Z,1276
2017-09-29T10:57:51.789Z,1417
2017-09-29T10:58:52.527Z,1603
2017-09-29T10:59:53.265Z,1276
2017-09-29T11:00:53.997Z,1186
2017-09-29T11:01:55.134Z,1012
2017-09-29T11:02:56.859Z,950
2017-09-29T11:03:58.798Z,1068
2017-09-29T11:04:59.765Z,1237
2017-09-29T11:06:00.532Z,1147
2017-09-29T11:07:01.507Z,1108
2017-09-29T11:08:02.252Z,1175
2017-09-29T11:09:03.897Z,1136
2017-09-29T11:10:04.634Z,1085
2017-09-29T11:11:05.437Z,1040
2017-09-29T11:12:06.488Z,1012
2017-09-29T11:13:07.236Z,1040
2017-09-29T11:14:07.981Z,1006
2017-09-29T11:15:08.718Z,956
2017-09-29T11:16:09.538Z,900
2017-09-29T11:17:12.018Z,832
2017-09-29T11:18:13.061Z,787
2017-09-29T11:19:13.882Z,798
2017-09-29T11:20:14.678Z,832
2017-09-29T11:21:15.539Z,866
2017-09-29T11:22:16.559Z,871
2017-09-29T11:23:17.376Z,843
2017-09-29T11:24:18.157Z,843
2017-09-29T11:25:18.902Z,843
2017-09-29T11:26:19.648Z,849
2017-09-29T11:27:20.792Z,843
2017-09-29T11:28:21.587Z,855
2017-09-29T11:29:22.325Z,888
2017-09-29T11:30:23.148Z,928
2017-09-29T11:31:23.952Z,950
2017-09-29T11:32:25.063Z,922
2017-09-29T11:33:25.820Z,911
2017-09-29T11:34:26.622Z,900
2017-09-29T11:35:27.411Z,883
2017-09-29T11:36:28.154Z,888
2017-09-29T11:37:29.533Z,905
2017-09-29T11:38:30.292Z,905
2017-09-29T11:39:31.041Z,905
2017-09-29T11:40:31.852Z,888
2017-09-29T11:41:32.670Z,883
2017-09-29T11:42:33.717Z,877
2017-09-29T11:43:34.533Z,900
2017-09-29T11:44:35.340Z,945
2017-09-29T11:45:36.078Z,984
2017-09-29T11:46:36.822Z,984
2017-09-29T11:47:37.937Z,933
2017-09-29T11:48:38.719Z,871
2017-09-29T11:49:39.528Z,815
2017-09-29T11:50:40.265Z,832
2017-09-29T11:51:41.004Z,888
2017-09-29T11:52:41.965Z,950
2017-09-29T11:53:42.750Z,1006
2017-09-29T11:54:43.500Z,1102
2017-09-29T11:55:44.320Z,1378
2017-09-29T11:56:45.073Z,1535
2017-09-29T11:57:46.281Z,1636
2017-09-29T11:58:47.020Z,1417
2017-09-29T11:59:47.769Z,1361
2017-09-29T12:00:48.526Z,1096
2017-09-29T12:01:49.333Z,973
2017-09-29T12:02:50.493Z,945
2017-09-29T12:03:51.306Z,1012
2017-09-29T12:04:52.135Z,1068
2017-09-29T12:05:52.945Z,1310
2017-09-29T12:06:53.746Z,1856
2017-09-29T12:07:54.939Z,2182
2017-09-29T12:08:55.696Z,1918
2017-09-29T12:09:56.510Z,1068
2017-09-29T12:10:57.262Z,1839
2017-09-29T12:11:58.084Z,1535
2017-09-29T12:12:58.837Z,1816
2017-09-29T12:13:59.561Z,1890
2017-09-29T12:15:00.305Z,2058
2017-09-29T12:16:01.049Z,1614
2017-09-29T12:17:01.786Z,1333
2017-09-29T12:18:02.823Z,1395
2017-09-29T12:19:03.632Z,1445
2017-09-29T12:20:04.398Z,1552
2017-09-29T12:21:05.171Z,1850
2017-09-29T12:22:05.926Z,1906
2017-09-29T12:23:07.083Z,1822
2017-09-29T12:24:07.824Z,1726
2017-09-29T12:25:09.656Z,1805
2017-09-29T12:26:10.714Z,1861
2017-09-29T12:27:11.429Z,1839
2017-09-29T12:28:12.642Z,1991
2017-09-29T12:29:13.374Z,1974
2017-09-29T12:30:14.192Z,1906
2017-09-29T12:31:14.953Z,2019
2017-09-29T12:32:15.741Z,2002
2017-09-29T12:33:16.753Z,1951
2017-09-29T12:34:17.523Z,1861
2017-09-29T12:35:18.335Z,1890
2017-09-29T12:36:19.131Z,1878
2017-09-29T12:37:19.946Z,922
2017-09-29T12:38:21.221Z,810
2017-09-29T12:39:22.007Z,765
2017-09-29T12:40:22.879Z,888
2017-09-29T12:41:23.654Z,1389
2017-09-29T12:42:24.402Z,826
2017-09-29T12:43:25.217Z,776
2017-09-29T12:44:26.483Z,1670
2017-09-29T12:45:27.231Z,1749
2017-09-29T12:46:27.992Z,1783
2017-09-29T12:47:28.740Z,1175
2017-09-29T12:48:29.493Z,956
2017-09-29T12:49:30.653Z,770
2017-09-29T12:50:31.394Z,776
2017-09-29T12:51:32.190Z,781
2017-09-29T12:52:32.950Z,759
2017-09-29T12:53:33.691Z,720
2017-09-29T12:54:34.685Z,703
2017-09-29T12:55:35.462Z,697
2017-09-29T12:56:36.274Z,691
2017-09-29T12:57:37.044Z,697
2017-09-29T12:58:37.872Z,691
2017-09-29T12:59:39.161Z,697
2017-09-29T13:00:39.960Z,697
2017-09-29T13:01:40.708Z,686
2017-09-29T13:02:41.448Z,675
2017-09-29T13:03:42.216Z,669
2017-09-29T13:04:42.958Z,652
2017-09-29T13:05:44.001Z,635
2017-09-29T13:06:44.749Z,630
2017-09-29T13:07:45.508Z,624
2017-09-29T13:08:46.252Z,613
2017-09-29T13:09:47.048Z,613
2017-09-29T13:10:48.178Z,630
2017-09-29T13:11:48.930Z,658
2017-09-29T13:12:49.728Z,703
2017-09-29T13:13:50.480Z,720
2017-09-29T13:14:51.308Z,691
2017-09-29T13:15:52.134Z,669
2017-09-29T13:16:52.939Z,652
2017-09-29T13:17:54.168Z,630
2017-09-29T13:18:55.009Z,607
2017-09-29T13:19:55.780Z,573
2017-09-29T13:20:56.509Z,534
2017-09-29T13:21:57.254Z,472
2017-09-29T13:22:58.447Z,421
2017-09-29T13:23:59.189Z,360
2017-09-29T13:24:59.945Z,309
2017-09-29T13:26:00.760Z,270
2017-09-29T13:27:01.498Z,241
2017-09-29T13:28:02.639Z,213
2017-09-29T13:29:03.403Z,202
2017-09-29T13:30:04.207Z,185
2017-09-29T13:31:04.947Z,168
2017-09-29T13:32:05.692Z,151
2017-09-29T13:33:06.620Z,140
2017-09-29T13:34:07.462Z,129
2017-09-29T13:35:08.210Z,118
2017-09-29T13:36:09.019Z,106
2017-09-29T13:37:09.770Z,95
2017-09-29T13:38:10.521Z,90
2017-09-29T13:39:11.328Z,84
2017-09-29T13:40:12.293Z,78
2017-09-29T13:41:13.063Z,78
2017-09-29T13:42:13.868Z,84
2017-09-29T13:43:14.669Z,84
2017-09-29T13:44:15.408Z,90
2017-09-29T13:45:16.451Z,95
2017-09-29T13:46:17.264Z,101
2017-09-29T13:47:18.012Z,112
2017-09-29T13:48:18.818Z,135
2017-09-29T13:49:19.556Z,191
2017-09-29T13:50:20.668Z,264
2017-09-29T13:51:21.469Z,331
2017-09-29T13:52:22.229Z,382
2017-09-29T13:53:22.984Z,399
2017-09-29T13:54:23.790Z,416
2017-09-29T13:55:24.896Z,511
2017-09-29T13:56:25.710Z,562
2017-09-29T13:57:26.482Z,590
2017-09-29T13:58:27.218Z,646
2017-09-29T13:59:28.023Z,675
2017-09-29T14:00:29.065Z,652
2017-09-29T14:01:29.814Z,585
2017-09-29T14:02:30.606Z,489
2017-09-29T14:03:31.353Z,438
2017-09-29T14:04:32.133Z,416
2017-09-29T14:05:33.124Z,376
2017-09-29T14:06:33.939Z,331
2017-09-29T14:07:34.675Z,331
2017-09-29T14:08:35.465Z,309
2017-09-29T14:09:36.220Z,275
2017-09-29T14:10:37.364Z,247
2017-09-29T14:11:38.504Z,225
2017-09-29T14:12:39.469Z,208
2017-09-29T14:13:40.329Z,202
2017-09-29T14:14:42.298Z,213
2017-09-29T14:15:43.751Z,219
2017-09-29T14:16:44.497Z,219
2017-09-29T14:17:45.307Z,208